»·PEaware :: EJA220 KSLC-KBFI

EJA220 :: KSLC-KBFI

FLIGHT INFORMATION

Flight Status: Arrived
Operator:
Netjets Aviation
More flights by this operator :: More flights under this callsign
Pilot: Ethan S. (29221)
Aircraft: CANADAIR CL-600 CHALLENGER
(CL60)
More flights by this aircraft type
Origin: KSLC Salt Lake City Intl
United States
Destination: KBFI Boeing Field/King Co Intl
United States
More flights between these airports :: More routes between these airports
Route: CGULL1 TWF PDT CHINS5
File this flight plan on PilotEdge
Remarks:
Altitude:
(Current/Filed)
38,000ft
Speed:
(Current/Filed)
465kts
Departed: 14-Nov-23 10:23 AM
Arrived: 14-Nov-23 12:05 PM
Distance/Time
Traveled:
600nm/1:42
Distance/Time
To Go:
Arrived

Flight Plot

Page will automatically refresh every two minutes.

Flight plan parsing failed; only flown route is shown


Map Options




Map Legend


Flown Route
Filed Route
Departure Airport
Arrival Airport
Navaid (VOR, NDB)
Fix

Horizontal Profiles

Position Reports

Time Latitude Longitude Heading Altitude Ground
Speed
14-Nov-23 10:02 40.774951 -111.959522 179 4230ft 0kts
14-Nov-23 10:03 40.774951 -111.959522 179 4230ft 0kts
14-Nov-23 10:04 40.774951 -111.959522 179 4230ft 0kts
14-Nov-23 10:05 40.774951 -111.959522 179 4230ft 0kts
14-Nov-23 10:06 40.774951 -111.959522 179 4230ft 0kts
14-Nov-23 10:07 40.774951 -111.959522 179 4230ft 0kts
14-Nov-23 10:08 40.774951 -111.959522 179 4230ft 0kts
14-Nov-23 10:09 40.774951 -111.959522 179 4230ft 0kts
14-Nov-23 10:10 40.774951 -111.959522 179 4230ft 0kts
14-Nov-23 10:11 40.774951 -111.959522 179 4230ft 0kts
14-Nov-23 10:12 40.774951 -111.959522 179 4230ft 0kts
14-Nov-23 10:13 40.774951 -111.959522 179 4230ft 0kts
14-Nov-23 10:14 40.774951 -111.959522 179 4230ft 0kts
14-Nov-23 10:15 40.774867 -111.959536 199 4230ft 1kts
14-Nov-23 10:16 40.775930 -111.960640 359 4229ft 12kts
14-Nov-23 10:17 40.779609 -111.960028 359 4229ft 14kts
14-Nov-23 10:18 40.784641 -111.960018 359 4226ft 22kts
14-Nov-23 10:19 40.791458 -111.960030 359 4224ft 28kts
14-Nov-23 10:20 40.797978 -111.960034 0 4225ft 13kts
14-Nov-23 10:21 40.798636 -111.961979 216 4225ft 10kts
14-Nov-23 10:22 40.768541 -111.964049 197 5236ft 212kts
14-Nov-23 10:23 40.772050 -112.038133 304 8233ft 272kts
14-Nov-23 10:24 40.820991 -112.114848 305 10145ft 270kts
14-Nov-23 10:25 40.872527 -112.184889 311 11491ft 266kts
14-Nov-23 10:26 40.927835 -112.252238 311 15305ft 276kts
14-Nov-23 10:27 40.984499 -112.321451 309 19343ft 283kts
14-Nov-23 10:28 41.048394 -112.400154 309 21452ft 350kts
14-Nov-23 10:29 41.130594 -112.479186 319 24466ft 379kts
14-Nov-23 10:30 41.217130 -112.558583 314 27395ft 381kts
14-Nov-23 10:31 41.299213 -112.648987 303 29697ft 378kts
14-Nov-23 10:32 41.370087 -112.754379 303 31692ft 385kts
14-Nov-23 10:33 41.439205 -112.858136 302 34088ft 371kts
14-Nov-23 10:34 41.506490 -112.961406 301 35703ft 370kts
14-Nov-23 10:35 41.573348 -113.064220 301 37025ft 368kts
14-Nov-23 10:36 41.641480 -113.169457 301 37401ft 386kts
14-Nov-23 10:37 41.713424 -113.280931 302 37412ft 404kts
14-Nov-23 10:38 41.787205 -113.395534 302 37429ft 409kts
14-Nov-23 10:39 41.861057 -113.510578 302 37429ft 406kts
14-Nov-23 10:40 41.934696 -113.625821 302 37421ft 407kts
14-Nov-23 10:41 42.007170 -113.739674 301 37408ft 406kts
14-Nov-23 10:42 42.080333 -113.855081 301 37447ft 406kts
14-Nov-23 10:43 42.153537 -113.970937 301 37442ft 404kts
14-Nov-23 10:44 42.226417 -114.086265 300 37438ft 404kts
14-Nov-23 10:45 42.299174 -114.201730 300 37424ft 405kts
14-Nov-23 10:46 42.372106 -114.318014 301 37408ft 406kts
14-Nov-23 10:47 42.444787 -114.434231 300 37385ft 402kts
14-Nov-23 10:48 42.521432 -114.545884 307 37402ft 412kts
14-Nov-23 10:49 42.604984 -114.651932 306 37416ft 412kts
14-Nov-23 10:50 42.688112 -114.758304 305 37435ft 410kts
14-Nov-23 10:51 42.770655 -114.864540 306 37428ft 408kts
14-Nov-23 10:52 42.852955 -114.970984 305 37442ft 408kts
14-Nov-23 10:53 42.935006 -115.077650 305 37452ft 410kts
14-Nov-23 10:54 43.017432 -115.185280 305 37422ft 410kts
14-Nov-23 10:55 43.099386 -115.292663 305 37416ft 409kts
14-Nov-23 10:56 43.181552 -115.400860 305 37364ft 410kts
14-Nov-23 10:57 43.263503 -115.509113 305 37353ft 408kts
14-Nov-23 10:58 43.344987 -115.617272 305 37398ft 411kts
14-Nov-23 10:59 43.426860 -115.726279 304 37423ft 408kts
14-Nov-23 11:00 43.508239 -115.835139 304 37413ft 410kts
14-Nov-23 11:01 43.589733 -115.944505 305 37404ft 409kts
14-Nov-23 11:02 43.670877 -116.053872 304 37423ft 410kts
14-Nov-23 11:03 43.752237 -116.164054 305 37407ft 409kts
14-Nov-23 11:04 43.833184 -116.273964 305 37408ft 408kts
14-Nov-23 11:05 43.913984 -116.384227 305 37433ft 409kts
14-Nov-23 11:06 43.994819 -116.494901 305 37458ft 408kts
14-Nov-23 11:07 44.075494 -116.605823 304 37455ft 407kts
14-Nov-23 11:08 44.156735 -116.718084 304 37427ft 412kts
14-Nov-23 11:09 44.237570 -116.830169 304 37423ft 411kts
14-Nov-23 11:10 44.318048 -116.942235 304 37557ft 413kts
14-Nov-23 11:11 44.399371 -117.055932 305 37569ft 414kts
14-Nov-23 11:12 44.480309 -117.169534 305 37585ft 413kts
14-Nov-23 11:13 44.561131 -117.283423 305 37565ft 413kts
14-Nov-23 11:14 44.642130 -117.398125 305 37578ft 416kts
14-Nov-23 11:15 44.723120 -117.513189 304 37556ft 416kts
14-Nov-23 11:16 44.803970 -117.628624 305 37549ft 414kts
14-Nov-23 11:17 44.881493 -117.739793 304 37557ft 416kts
14-Nov-23 11:18 44.962677 -117.856639 304 37533ft 418kts
14-Nov-23 11:19 45.043685 -117.973767 305 37565ft 416kts
14-Nov-23 11:20 45.124099 -118.090553 304 37581ft 417kts
14-Nov-23 11:21 45.204830 -118.208295 305 37541ft 418kts
14-Nov-23 11:22 45.285701 -118.326700 305 37541ft 418kts
14-Nov-23 11:23 45.366289 -118.445289 305 37600ft 418kts
14-Nov-23 11:24 45.447032 -118.564646 305 37614ft 419kts
14-Nov-23 11:25 45.525619 -118.681245 305 37622ft 419kts
14-Nov-23 11:26 45.606007 -118.800974 304 37623ft 418kts
14-Nov-23 11:27 45.686505 -118.921124 305 37579ft 421kts
14-Nov-23 11:28 45.762455 -119.046380 301 37623ft 417kts
14-Nov-23 11:29 45.837418 -119.173642 302 37626ft 417kts
14-Nov-23 11:30 45.911827 -119.300275 302 37614ft 418kts
14-Nov-23 11:31 45.986787 -119.428287 301 37638ft 419kts
14-Nov-23 11:32 46.061689 -119.556916 302 37618ft 419kts
14-Nov-23 11:33 46.133769 -119.681089 301 37660ft 419kts
14-Nov-23 11:34 46.208976 -119.811319 301 37642ft 421kts
14-Nov-23 11:35 46.283802 -119.941450 302 37614ft 424kts
14-Nov-23 11:36 46.358748 -120.072446 302 37604ft 421kts
14-Nov-23 11:37 46.433414 -120.203506 302 37604ft 424kts
14-Nov-23 11:38 46.508267 -120.335522 303 36754ft 416kts
14-Nov-23 11:39 46.579252 -120.463365 299 34430ft 398kts
14-Nov-23 11:40 46.640986 -120.592921 300 32271ft 387kts
14-Nov-23 11:41 46.702409 -120.722246 301 30228ft 400kts
14-Nov-23 11:42 46.765903 -120.856061 301 28277ft 396kts
14-Nov-23 11:43 46.804495 -120.937805 302 27101ft 390kts
14-Nov-23 11:44 46.854919 -121.045030 302 25516ft 383kts
14-Nov-23 11:45 46.914118 -121.171382 303 23587ft 373kts
14-Nov-23 11:46 46.971792 -121.295069 303 21580ft 363kts
14-Nov-23 11:47 47.027771 -121.415600 302 19550ft 352kts
14-Nov-23 11:48 47.081317 -121.531453 302 18230ft 339kts
14-Nov-23 11:49 47.131695 -121.640867 301 16185ft 324kts
14-Nov-23 11:50 47.180847 -121.748019 300 14154ft 312kts
14-Nov-23 11:51 47.228466 -121.852245 300 12142ft 303kts
14-Nov-23 11:52 47.275099 -121.954792 300 11734ft 302kts
14-Nov-23 11:53 47.321534 -122.057245 300 11738ft 297kts
14-Nov-23 11:54 47.364974 -122.153686 298 11753ft 279kts
14-Nov-23 11:55 47.402326 -122.255190 295 10069ft 281kts
14-Nov-23 11:56 47.438337 -122.355625 295 8058ft 268kts
14-Nov-23 11:57 47.493338 -122.422313 325 6160ft 252kts
14-Nov-23 11:58 47.548681 -122.475612 325 5083ft 231kts
14-Nov-23 11:59 47.603073 -122.509092 28 3637ft 210kts
14-Nov-23 12:00 47.633398 -122.448932 110 2382ft 198kts
14-Nov-23 12:01 47.613398 -122.388261 115 2148ft 152kts
14-Nov-23 12:02 47.584612 -122.348740 148 1126ft 142kts
14-Nov-23 12:03 47.553645 -122.322449 149 357ft 122kts
14-Nov-23 12:04 47.531047 -122.303370 150 22ft 30kts
14-Nov-23 12:05 47.531973 -122.301128 330 23ft 12kts
14-Nov-23 12:06 47.536407 -122.305146 322 22ft 15kts
14-Nov-23 12:07 47.538022 -122.305231 118 23ft 2kts
14-Nov-23 12:08 47.537916 -122.305108 142 23ft 0kts
14-Nov-23 12:09 47.537916 -122.305108 142 23ft 0kts
14-Nov-23 12:10 47.537916 -122.305108 142 23ft 0kts
14-Nov-23 12:11 47.537915 -122.305108 142 23ft 0kts
14-Nov-23 12:12 47.537915 -122.305108 142 23ft 0kts
14-Nov-23 12:13 47.537915 -122.305108 142 23ft 0kts
14-Nov-23 12:14 47.537915 -122.305108 142 23ft 0kts

Navigation Log

Ident Type
Flight plan parsing failed, navigation log unavailable